createdAt,value
2023-03-22T00:00:41.366Z,73.80
2023-03-22T00:03:12.869Z,76.23
2023-03-22T00:05:41.785Z,75.63
2023-03-22T00:08:11.273Z,74.20
2023-03-22T00:10:42.625Z,73.60
2023-03-22T00:13:13.049Z,78.03
2023-03-22T00:15:41.260Z,77.43
2023-03-22T00:18:09.687Z,78.30
2023-03-22T00:20:39.693Z,81.57
2023-03-22T00:23:09.334Z,79.93
2023-03-22T00:25:37.703Z,72.73
2023-03-22T00:28:08.058Z,80.67
2023-03-22T00:30:36.819Z,96.83
2023-03-22T00:33:06.982Z,85.23
2023-03-22T00:35:35.485Z,87.07
2023-03-22T00:38:14.496Z,77.70
2023-03-22T00:40:44.098Z,99.33
2023-03-22T00:43:15.876Z,111.90
2023-03-22T00:45:44.769Z,102.20
2023-03-22T00:48:13.681Z,73.27
2023-03-22T00:50:42.525Z,68.50
2023-03-22T00:53:10.864Z,67.90
2023-03-22T00:55:40.610Z,71.20
2023-03-22T00:58:08.822Z,75.63
2023-03-22T01:00:38.823Z,74.17
2023-03-22T01:03:07.756Z,68.13
2023-03-22T01:05:36.804Z,104.90
2023-03-22T01:08:08.640Z,78.47
2023-03-22T01:10:37.753Z,77.77
2023-03-22T01:13:06.595Z,71.73
2023-03-22T01:15:35.672Z,80.27
2023-03-22T01:18:07.732Z,73.03
2023-03-22T01:20:36.638Z,70.87
2023-03-22T01:23:05.100Z,75.13
2023-03-22T01:25:33.598Z,78.17
2023-03-22T01:28:02.963Z,74.07
2023-03-22T01:30:31.690Z,71.40
2023-03-22T01:33:00.355Z,77.77
2023-03-22T01:35:30.903Z,92.70
2023-03-22T01:37:59.535Z,97.13
2023-03-22T01:40:29.940Z,78.57
2023-03-22T01:42:58.875Z,80.20
2023-03-22T01:45:46.405Z,115.70
2023-03-22T01:48:26.113Z,134.03
2023-03-22T01:51:11.998Z,102.13
2023-03-22T01:53:44.541Z,85.20
2023-03-22T01:56:14.057Z,141.80
2023-03-22T01:58:43.954Z,187.73
2023-03-22T02:01:13.127Z,110.87
2023-03-22T02:03:49.651Z,179.70
2023-03-22T02:06:20.070Z,146.27
2023-03-22T02:08:48.504Z,259.43
2023-03-22T02:11:19.905Z,216.70
2023-03-22T02:14:10.002Z,398.73
2023-03-22T02:16:50.183Z,330.90
2023-03-22T02:19:52.154Z,216.03
2023-03-22T02:23:01.198Z,388.00
2023-03-22T02:26:04.904Z,170.10
2023-03-22T02:28:46.365Z,351.90
2023-03-22T02:31:48.233Z,267.83
2023-03-22T02:34:50.875Z,193.57
2023-03-22T02:37:55.696Z,321.97
2023-03-22T02:40:34.427Z,193.07
2023-03-22T02:43:14.395Z,175.27
2023-03-22T02:45:48.454Z,107.73
2023-03-22T02:48:20.525Z,156.07
2023-03-22T02:50:55.045Z,227.03
2023-03-22T02:53:29.462Z,141.57
2023-03-22T02:56:02.750Z,328.70
2023-03-22T02:58:37.390Z,176.60
2023-03-22T03:01:10.358Z,217.80
2023-03-22T03:03:41.052Z,117.80
2023-03-22T03:06:14.789Z,137.43
2023-03-22T03:08:44.013Z,167.87
2023-03-22T03:11:15.215Z,206.43
2023-03-22T03:13:43.596Z,161.00
2023-03-22T03:16:17.722Z,123.50
2023-03-22T03:18:52.668Z,137.73
2023-03-22T03:21:32.904Z,118.10
2023-03-22T03:24:15.755Z,107.77
2023-03-22T03:26:57.693Z,111.80
2023-03-22T03:29:33.975Z,310.90
2023-03-22T03:32:10.390Z,168.00
2023-03-22T03:34:49.756Z,136.97
2023-03-22T03:37:25.089Z,222.03
2023-03-22T03:39:58.648Z,250.67
2023-03-22T03:42:31.296Z,168.87
2023-03-22T03:45:00.736Z,182.57
2023-03-22T03:47:30.552Z,144.87
2023-03-22T03:49:59.132Z,138.57
2023-03-22T03:52:27.720Z,96.00
2023-03-22T03:54:56.392Z,90.93
2023-03-22T03:57:24.860Z,87.53
2023-03-22T03:59:54.518Z,249.73
2023-03-22T04:02:23.094Z,156.10
2023-03-22T04:04:51.370Z,198.30
2023-03-22T04:07:20.050Z,252.07
2023-03-22T04:09:48.478Z,173.10
2023-03-22T04:12:16.851Z,339.53
2023-03-22T04:14:45.048Z,320.27
2023-03-22T04:17:16.031Z,287.20
2023-03-22T04:19:44.850Z,96.23
2023-03-22T04:22:14.871Z,160.67
2023-03-22T04:24:43.497Z,114.47
2023-03-22T04:27:12.034Z,113.73
2023-03-22T04:29:40.738Z,92.40
2023-03-22T04:32:09.114Z,67.83
2023-03-22T04:34:38.926Z,67.60
2023-03-22T04:37:08.933Z,80.57
2023-03-22T04:39:37.204Z,74.53
2023-03-22T04:42:05.833Z,67.23
2023-03-22T04:44:34.349Z,72.00
2023-03-22T04:47:02.780Z,67.30
2023-03-22T04:49:31.592Z,66.37
2023-03-22T04:52:01.558Z,64.83
2023-03-22T04:54:31.537Z,62.80
2023-03-22T04:57:01.343Z,63.57
2023-03-22T04:59:31.182Z,61.70
2023-03-22T05:01:59.730Z,57.60
2023-03-22T05:04:28.924Z,58.87
2023-03-22T05:06:57.132Z,59.37
2023-03-22T05:09:28.032Z,54.50
2023-03-22T05:11:56.580Z,57.03
2023-03-22T05:14:25.642Z,56.30
2023-03-22T05:16:53.922Z,53.57
2023-03-22T05:19:24.719Z,53.20
2023-03-22T05:22:02.021Z,49.63
2023-03-22T05:24:32.493Z,49.10
2023-03-22T05:27:01.240Z,49.80
2023-03-22T05:29:37.179Z,45.30
2023-03-22T05:32:05.847Z,46.03
2023-03-22T05:34:37.008Z,46.47
2023-03-22T05:37:06.951Z,46.17
2023-03-22T05:39:37.186Z,43.93
2023-03-22T05:42:05.736Z,45.73
2023-03-22T05:44:34.220Z,47.37
2023-03-22T05:47:02.591Z,46.87
2023-03-22T05:49:31.995Z,49.83
2023-03-22T05:52:00.544Z,46.40
2023-03-22T05:54:28.851Z,42.20
2023-03-22T05:56:58.668Z,45.50
2023-03-22T05:59:27.076Z,43.73
2023-03-22T06:01:55.694Z,47.93
2023-03-22T06:04:23.838Z,46.20
2023-03-22T06:06:53.951Z,47.73
2023-03-22T06:09:23.380Z,43.70
2023-03-22T06:11:51.637Z,47.47
2023-03-22T06:14:21.270Z,43.63
2023-03-22T06:16:49.328Z,43.27
2023-03-22T06:19:17.893Z,45.27
2023-03-22T06:21:49.084Z,47.60
2023-03-22T06:24:17.653Z,48.00
2023-03-22T06:26:46.276Z,41.70
2023-03-22T06:29:14.772Z,44.03
2023-03-22T06:31:44.230Z,44.07
2023-03-22T06:34:12.568Z,42.73
2023-03-22T06:36:42.493Z,43.63
2023-03-22T06:39:11.033Z,42.27
2023-03-22T06:41:39.460Z,43.17
2023-03-22T06:44:07.599Z,42.27
2023-03-22T06:46:35.688Z,42.27
2023-03-22T06:49:05.599Z,37.07
2023-03-22T06:51:33.830Z,35.33
2023-03-22T06:54:02.481Z,37.23
2023-03-22T06:56:31.245Z,37.30
2023-03-22T06:58:59.661Z,33.17
2023-03-22T07:01:27.942Z,36.50
2023-03-22T07:03:56.138Z,38.60
2023-03-22T07:06:27.463Z,39.07
2023-03-22T07:08:58.124Z,35.77
2023-03-22T07:11:27.467Z,34.30
2023-03-22T07:13:56.162Z,32.77
2023-03-22T07:16:24.927Z,32.50
2023-03-22T07:18:53.529Z,32.57
2023-03-22T07:21:22.612Z,29.13
2023-03-22T07:23:52.558Z,29.67
2023-03-22T07:26:21.444Z,30.63
2023-03-22T07:28:49.617Z,31.40
2023-03-22T07:31:18.785Z,29.83
2023-03-22T07:33:48.394Z,30.23
2023-03-22T07:36:17.232Z,28.37
2023-03-22T07:38:45.742Z,30.07
2023-03-22T07:41:15.623Z,29.30
2023-03-22T07:43:53.358Z,29.00
2023-03-22T07:46:24.962Z,26.53
2023-03-22T07:48:53.444Z,27.97
2023-03-22T07:51:21.766Z,24.23
2023-03-22T07:53:50.209Z,27.90
2023-03-22T07:56:20.070Z,24.57
2023-03-22T07:58:48.407Z,26.67
2023-03-22T08:01:16.630Z,28.40
2023-03-22T08:03:45.711Z,23.60
2023-03-22T08:06:19.042Z,21.27
2023-03-22T08:08:47.578Z,24.27
2023-03-22T08:11:15.806Z,20.47
2023-03-22T08:13:46.194Z,21.67
2023-03-22T08:16:15.914Z,19.63
2023-03-22T08:18:45.388Z,19.13
2023-03-22T08:21:16.495Z,15.80
2023-03-22T08:23:48.695Z,15.47
2023-03-22T08:26:18.194Z,13.27
2023-03-22T08:28:49.280Z,16.07
2023-03-22T08:31:18.888Z,13.03
2023-03-22T08:33:48.261Z,11.30
2023-03-22T08:36:19.915Z,12.03
2023-03-22T08:38:48.629Z,12.07
2023-03-22T08:41:17.453Z,12.67
2023-03-22T08:43:45.816Z,11.13
2023-03-22T08:46:15.580Z,12.57
2023-03-22T08:48:50.588Z,12.80
2023-03-22T08:51:20.915Z,10.57
2023-03-22T08:53:50.542Z,10.40
2023-03-22T08:56:20.336Z,11.00
2023-03-22T08:58:49.023Z,10.23
2023-03-22T09:01:21.269Z,10.40
2023-03-22T09:03:51.366Z,9.93
2023-03-22T09:06:20.055Z,10.23
2023-03-22T09:08:52.227Z,9.17
2023-03-22T09:11:21.326Z,10.20
2023-03-22T09:13:50.274Z,7.83
2023-03-22T09:16:20.734Z,10.93
2023-03-22T09:18:49.453Z,10.63
2023-03-22T09:21:17.956Z,7.30
2023-03-22T09:23:47.933Z,5.97
2023-03-22T09:26:17.080Z,7.53
2023-03-22T09:28:47.006Z,7.13
2023-03-22T09:31:15.572Z,8.50
2023-03-22T09:33:45.954Z,7.43
2023-03-22T09:36:16.280Z,6.67
2023-03-22T09:38:45.686Z,7.67
2023-03-22T09:41:19.631Z,8.07
2023-03-22T09:43:52.475Z,7.53
2023-03-22T09:46:29.030Z,6.40
2023-03-22T09:49:01.782Z,7.37
2023-03-22T09:51:38.773Z,8.00
2023-03-22T09:54:16.402Z,7.93
2023-03-22T09:56:48.952Z,7.20
2023-03-22T09:59:27.334Z,6.13
2023-03-22T10:02:04.991Z,7.13
2023-03-22T10:05:04.334Z,4.70
2023-03-22T10:07:42.801Z,4.10
2023-03-22T10:10:19.048Z,5.90
2023-03-22T10:12:57.769Z,5.83
2023-03-22T10:15:30.983Z,6.07
2023-03-22T10:18:02.889Z,4.90
2023-03-22T10:20:43.645Z,3.33
2023-03-22T10:23:16.363Z,4.03
2023-03-22T10:25:46.106Z,5.57
2023-03-22T10:28:18.247Z,5.47
2023-03-22T10:30:51.157Z,6.83
2023-03-22T10:33:30.908Z,4.13
2023-03-22T10:36:03.003Z,5.40
2023-03-22T10:38:33.136Z,6.23
2023-03-22T10:41:03.374Z,3.63
2023-03-22T10:43:35.361Z,3.77
2023-03-22T10:46:07.218Z,2.83
2023-03-22T10:48:40.255Z,3.80
2023-03-22T10:51:22.518Z,4.90
2023-03-22T10:53:55.227Z,3.40
2023-03-22T10:56:24.139Z,5.77
2023-03-22T10:58:53.298Z,5.00
2023-03-22T11:01:28.744Z,4.93
2023-03-22T11:04:00.653Z,3.67
2023-03-22T11:06:37.146Z,5.80
2023-03-22T11:09:14.829Z,3.50
2023-03-22T11:11:58.834Z,3.13
2023-03-22T11:14:32.637Z,3.30
2023-03-22T11:17:06.497Z,4.77
2023-03-22T11:19:37.383Z,4.47
2023-03-22T11:22:20.402Z,3.87
2023-03-22T11:24:49.107Z,4.60
2023-03-22T11:27:21.651Z,3.13
2023-03-22T11:29:52.345Z,4.57
2023-03-22T11:32:28.076Z,2.97
2023-03-22T11:35:05.307Z,3.97
2023-03-22T11:37:43.112Z,3.13
2023-03-22T11:40:17.066Z,3.37
2023-03-22T11:42:46.311Z,3.30
2023-03-22T11:45:18.134Z,3.57
2023-03-22T11:47:47.008Z,4.80
2023-03-22T11:50:28.445Z,4.67
2023-03-22T11:52:59.358Z,4.13
2023-03-22T11:55:27.880Z,5.23
2023-03-22T11:57:58.387Z,3.90
2023-03-22T12:00:30.488Z,3.77
2023-03-22T12:03:03.036Z,2.90
2023-03-22T12:05:34.258Z,4.30
2023-03-22T12:08:10.991Z,4.73
2023-03-22T12:10:42.666Z,2.90
2023-03-22T12:13:20.925Z,5.10
2023-03-22T12:15:51.830Z,2.07
2023-03-22T12:18:28.107Z,2.80
2023-03-22T12:21:02.032Z,2.43
2023-03-22T12:23:35.188Z,3.20
2023-03-22T12:26:09.430Z,2.57
2023-03-22T12:28:42.846Z,3.83
2023-03-22T12:31:17.304Z,3.03
2023-03-22T12:33:49.182Z,3.40
2023-03-22T12:36:23.426Z,2.47
2023-03-22T12:38:57.402Z,3.07
2023-03-22T12:41:31.078Z,3.43
2023-03-22T12:44:03.905Z,4.33
2023-03-22T12:46:37.477Z,2.33
2023-03-22T12:49:20.197Z,3.23
2023-03-22T12:51:50.374Z,2.37
2023-03-22T12:54:24.822Z,4.50
2023-03-22T12:56:56.722Z,2.47
2023-03-22T12:59:30.288Z,2.00
2023-03-22T13:02:01.734Z,1.90
2023-03-22T13:04:51.107Z,1.97
2023-03-22T13:07:39.032Z,2.37
2023-03-22T13:10:42.064Z,2.83
2023-03-22T13:13:16.520Z,6.23
2023-03-22T13:16:01.402Z,3.50
2023-03-22T13:18:42.590Z,3.30
2023-03-22T13:21:14.474Z,20.40
2023-03-22T13:24:01.034Z,12.70
2023-03-22T13:26:38.680Z,6.13
2023-03-22T13:29:18.800Z,2.53
2023-03-22T13:31:55.353Z,3.03
2023-03-22T13:34:33.523Z,1.93
2023-03-22T13:37:03.810Z,2.33
2023-03-22T13:39:34.870Z,1.80
2023-03-22T13:42:19.244Z,1.43
2023-03-22T13:44:58.685Z,3.77
2023-03-22T13:47:37.937Z,2.50
2023-03-22T13:50:16.615Z,2.20
2023-03-22T13:52:53.238Z,2.73
2023-03-22T13:55:42.721Z,2.67
2023-03-22T13:58:14.141Z,2.13
2023-03-22T14:00:56.392Z,2.97
2023-03-22T14:03:30.404Z,4.87
2023-03-22T14:06:17.224Z,5.33
2023-03-22T14:08:48.085Z,4.23
2023-03-22T14:11:26.353Z,1.90
2023-03-22T14:14:02.906Z,4.43
2023-03-22T14:16:40.570Z,3.97
2023-03-22T14:19:15.145Z,5.10
